createdAt,value
2017-07-17T00:02:20.394Z,2.40
2017-07-17T00:04:48.475Z,2.20
2017-07-17T00:07:16.755Z,1.93
2017-07-17T00:09:44.935Z,2.03
2017-07-17T00:12:12.864Z,2.30
2017-07-17T00:14:41.164Z,2.03
2017-07-17T00:17:09.086Z,2.30
2017-07-17T00:19:37.138Z,2.20
2017-07-17T00:22:04.958Z,2.13
2017-07-17T00:24:32.844Z,2.30
2017-07-17T00:27:01.065Z,2.23
2017-07-17T00:29:29.946Z,2.30
2017-07-17T00:31:58.371Z,2.40
2017-07-17T00:34:26.495Z,2.00
2017-07-17T00:36:54.420Z,2.10
2017-07-17T00:39:22.410Z,1.93
2017-07-17T00:41:51.120Z,2.17
2017-07-17T00:44:19.103Z,1.83
2017-07-17T00:46:47.065Z,2.47
2017-07-17T00:49:14.951Z,2.07
2017-07-17T00:51:42.724Z,2.50
2017-07-17T00:54:10.866Z,2.10
2017-07-17T00:56:38.752Z,1.97
2017-07-17T00:59:06.834Z,2.27
2017-07-17T01:01:35.590Z,1.90
2017-07-17T01:04:03.784Z,2.23
2017-07-17T01:06:31.865Z,2.40
2017-07-17T01:08:59.709Z,2.40
2017-07-17T01:11:27.679Z,2.23
2017-07-17T01:13:55.819Z,2.13
2017-07-17T01:16:24.018Z,2.30
2017-07-17T01:18:52.928Z,2.57
2017-07-17T01:21:20.966Z,1.80
2017-07-17T01:23:49.005Z,2.33
2017-07-17T01:26:17.197Z,2.20
2017-07-17T01:28:45.461Z,2.20
2017-07-17T01:31:13.659Z,2.50
2017-07-17T01:33:41.614Z,2.87
2017-07-17T01:36:09.762Z,2.50
2017-07-17T01:38:37.726Z,2.10
2017-07-17T01:41:05.718Z,2.70
2017-07-17T01:43:33.758Z,2.50
2017-07-17T01:46:01.713Z,2.50
2017-07-17T01:48:29.755Z,2.60
2017-07-17T01:50:59.766Z,2.50
2017-07-17T01:53:27.805Z,2.47
2017-07-17T01:55:56.406Z,2.20
2017-07-17T01:58:25.107Z,2.10
2017-07-17T02:00:53.125Z,2.47
2017-07-17T02:03:21.914Z,2.37
2017-07-17T02:05:49.938Z,2.43
2017-07-17T02:08:17.968Z,2.50
2017-07-17T02:10:45.957Z,2.20
2017-07-17T02:13:14.050Z,2.33
2017-07-17T02:15:42.125Z,2.43
2017-07-17T02:18:10.249Z,2.73
2017-07-17T02:20:38.146Z,2.30
2017-07-17T02:23:06.145Z,2.53
2017-07-17T02:25:34.228Z,2.20
2017-07-17T02:28:02.139Z,2.70
2017-07-17T02:30:30.130Z,2.77
2017-07-17T02:32:58.077Z,2.10
2017-07-17T02:35:28.249Z,2.67
2017-07-17T02:37:58.632Z,2.63
2017-07-17T02:40:29.187Z,2.83
2017-07-17T02:42:58.377Z,2.80
2017-07-17T02:45:27.597Z,2.30
2017-07-17T02:47:56.288Z,2.43
2017-07-17T02:50:25.865Z,2.50
2017-07-17T02:52:54.438Z,2.60
2017-07-17T02:55:24.173Z,2.63
2017-07-17T02:57:52.588Z,2.50
2017-07-17T03:00:22.713Z,2.43
2017-07-17T03:02:51.839Z,2.83
2017-07-17T03:05:21.218Z,2.93
2017-07-17T03:07:50.720Z,2.27
2017-07-17T03:10:19.706Z,2.40
2017-07-17T03:12:49.006Z,3.13
2017-07-17T03:15:22.068Z,2.70
2017-07-17T03:17:52.378Z,2.30
2017-07-17T03:20:21.658Z,2.47
2017-07-17T03:22:52.100Z,2.37
2017-07-17T03:25:20.809Z,2.10
2017-07-17T03:27:49.357Z,2.50
2017-07-17T03:30:18.821Z,2.73
2017-07-17T03:32:49.277Z,2.70
2017-07-17T03:35:19.395Z,2.67
2017-07-17T03:37:49.558Z,2.50
2017-07-17T03:40:20.422Z,2.30
2017-07-17T03:42:48.840Z,2.50
2017-07-17T03:45:18.795Z,2.67
2017-07-17T03:47:48.319Z,2.53
2017-07-17T03:50:19.510Z,2.73
2017-07-17T03:52:50.398Z,2.60
2017-07-17T03:55:18.863Z,2.90
2017-07-17T03:57:47.607Z,2.30
2017-07-17T04:00:16.306Z,2.10
2017-07-17T04:02:45.594Z,2.80
2017-07-17T04:05:14.012Z,2.87
2017-07-17T04:07:43.178Z,2.70
2017-07-17T04:10:11.718Z,2.80
2017-07-17T04:12:40.404Z,2.43
2017-07-17T04:15:08.714Z,2.90
2017-07-17T04:17:37.977Z,3.20
2017-07-17T04:20:06.530Z,2.40
2017-07-17T04:22:39.064Z,2.50
2017-07-17T04:25:09.718Z,2.40
2017-07-17T04:27:40.578Z,2.40
2017-07-17T04:30:09.658Z,2.30
2017-07-17T04:32:38.768Z,2.40
2017-07-17T04:35:08.750Z,2.30
2017-07-17T04:37:37.920Z,2.07
2017-07-17T04:40:06.725Z,2.57
2017-07-17T04:42:37.460Z,2.77
2017-07-17T04:45:06.053Z,2.37
2017-07-17T04:47:34.530Z,2.20
2017-07-17T04:50:02.292Z,2.17
2017-07-17T04:52:29.865Z,2.20
2017-07-17T04:54:57.541Z,2.40
2017-07-17T04:57:25.321Z,2.53
2017-07-17T04:59:53.660Z,2.30
2017-07-17T05:02:21.299Z,2.40
2017-07-17T05:04:49.091Z,2.10
2017-07-17T05:07:16.746Z,2.10
2017-07-17T05:09:44.474Z,2.50
2017-07-17T05:12:12.058Z,2.30
2017-07-17T05:14:39.618Z,2.20
2017-07-17T05:17:07.222Z,2.80
2017-07-17T05:19:34.796Z,2.40
2017-07-17T05:22:02.501Z,2.13
2017-07-17T05:24:31.801Z,2.40
2017-07-17T05:27:00.130Z,1.93
2017-07-17T05:29:27.685Z,1.83
2017-07-17T05:31:55.252Z,2.17
2017-07-17T05:34:22.882Z,2.00
2017-07-17T05:36:50.449Z,2.17
2017-07-17T05:39:19.092Z,2.30
2017-07-17T05:41:48.821Z,2.13
2017-07-17T05:44:16.559Z,2.10
2017-07-17T05:46:44.855Z,1.90
2017-07-17T05:49:12.415Z,2.00
2017-07-17T05:51:40.790Z,2.70
2017-07-17T05:54:09.181Z,2.30
2017-07-17T05:56:36.741Z,2.10
2017-07-17T05:59:04.261Z,2.20
2017-07-17T06:01:31.816Z,1.93
2017-07-17T06:03:59.380Z,2.27
2017-07-17T06:06:27.025Z,2.27
2017-07-17T06:08:54.616Z,2.07
2017-07-17T06:11:22.280Z,2.10
2017-07-17T06:13:49.817Z,1.87
2017-07-17T06:16:17.481Z,1.80
2017-07-17T06:18:45.121Z,2.23
2017-07-17T06:21:12.675Z,1.60
2017-07-17T06:23:40.192Z,2.00
2017-07-17T06:26:07.757Z,1.90
2017-07-17T06:28:36.030Z,2.30
2017-07-17T06:31:04.320Z,1.90
2017-07-17T06:33:32.645Z,1.60
2017-07-17T06:36:00.207Z,1.90
2017-07-17T06:38:27.823Z,1.70
2017-07-17T06:40:55.430Z,1.57
2017-07-17T06:43:23.145Z,1.80
2017-07-17T06:45:50.666Z,1.70
2017-07-17T06:48:18.306Z,2.23
2017-07-17T06:50:45.908Z,1.77
2017-07-17T06:53:13.426Z,2.17
2017-07-17T06:55:40.940Z,1.83
2017-07-17T06:58:09.264Z,1.80
2017-07-17T07:00:36.794Z,1.70
2017-07-17T07:03:04.320Z,1.60
2017-07-17T07:05:32.693Z,2.40
2017-07-17T07:08:00.217Z,1.70
2017-07-17T07:10:27.767Z,1.63
2017-07-17T07:12:55.338Z,1.60
2017-07-17T07:15:22.967Z,1.70
2017-07-17T07:17:50.488Z,1.80
2017-07-17T07:20:18.056Z,1.80
2017-07-17T07:22:45.572Z,1.70
2017-07-17T07:25:13.133Z,1.90
2017-07-17T07:27:40.822Z,1.90
2017-07-17T07:30:08.654Z,1.57
2017-07-17T07:32:36.972Z,1.50
2017-07-17T07:35:04.527Z,1.40
2017-07-17T07:37:32.205Z,1.50
2017-07-17T07:39:59.901Z,1.30
2017-07-17T07:42:28.234Z,1.90
2017-07-17T07:44:55.813Z,1.70
2017-07-17T07:47:23.337Z,1.50
2017-07-17T07:49:50.945Z,1.53
2017-07-17T07:52:18.521Z,1.40
2017-07-17T07:54:46.172Z,1.50
2017-07-17T07:57:13.705Z,1.67
2017-07-17T07:59:41.384Z,1.47
2017-07-17T08:02:08.905Z,1.60
2017-07-17T08:04:36.542Z,1.90
2017-07-17T08:07:04.191Z,1.63
2017-07-17T08:09:31.761Z,1.50
2017-07-17T08:11:59.445Z,1.60
2017-07-17T08:14:27.174Z,1.50
2017-07-17T08:16:55.782Z,2.53
2017-07-17T08:19:23.614Z,1.40
2017-07-17T08:21:52.007Z,1.83
2017-07-17T08:24:19.964Z,1.73
2017-07-17T08:26:47.782Z,1.60
2017-07-17T08:29:15.497Z,1.53
2017-07-17T08:31:43.366Z,1.67
2017-07-17T08:34:11.902Z,1.60
2017-07-17T08:36:39.601Z,1.80
2017-07-17T08:39:08.162Z,1.70
2017-07-17T08:41:36.127Z,1.47
2017-07-17T08:44:05.275Z,1.50
2017-07-17T08:46:34.230Z,1.40
2017-07-17T08:49:07.753Z,1.80
2017-07-17T08:51:36.571Z,1.70
2017-07-17T08:54:07.826Z,1.20
2017-07-17T08:56:36.822Z,1.70
2017-07-17T08:59:05.691Z,1.60
2017-07-17T09:01:33.945Z,1.70
2017-07-17T09:04:04.258Z,1.87
2017-07-17T09:06:33.497Z,1.30
2017-07-17T09:09:02.242Z,1.33
2017-07-17T09:11:29.951Z,1.50
2017-07-17T09:13:59.650Z,1.20
2017-07-17T09:16:30.637Z,2.53
2017-07-17T09:19:00.639Z,1.63
2017-07-17T09:21:28.697Z,1.70
2017-07-17T09:23:56.224Z,1.97
2017-07-17T09:26:23.737Z,1.87
2017-07-17T09:28:51.380Z,1.40
2017-07-17T09:31:18.950Z,2.00
2017-07-17T09:33:46.722Z,1.33
2017-07-17T09:36:14.316Z,1.50
2017-07-17T09:38:42.060Z,1.60
2017-07-17T09:41:09.573Z,1.60
2017-07-17T09:43:37.895Z,1.80
2017-07-17T09:46:05.468Z,1.37
2017-07-17T09:48:33.003Z,1.47
2017-07-17T09:51:00.555Z,1.50
2017-07-17T09:53:28.075Z,1.37
2017-07-17T09:55:55.719Z,1.93
2017-07-17T09:58:23.271Z,1.30
2017-07-17T10:00:50.892Z,1.60
2017-07-17T10:03:18.460Z,1.80
2017-07-17T10:05:45.976Z,1.70
2017-07-17T10:08:13.505Z,1.50
2017-07-17T10:10:41.891Z,1.70
2017-07-17T10:13:09.411Z,1.77
2017-07-17T10:15:37.914Z,1.43
2017-07-17T10:18:05.491Z,1.70
2017-07-17T10:20:33.084Z,1.80
2017-07-17T10:23:00.631Z,1.90
2017-07-17T10:25:28.148Z,1.70
2017-07-17T10:27:55.696Z,2.03
2017-07-17T10:30:23.979Z,1.40
2017-07-17T10:32:51.498Z,2.00
2017-07-17T10:35:19.110Z,1.67
2017-07-17T10:37:46.820Z,1.70
2017-07-17T10:40:14.332Z,1.70
2017-07-17T10:42:42.048Z,1.37
2017-07-17T10:45:22.307Z,1.40
2017-07-17T10:47:53.812Z,1.17
2017-07-17T10:50:21.337Z,1.43
2017-07-17T10:52:49.618Z,1.53
2017-07-17T10:55:17.932Z,1.60
2017-07-17T10:57:45.764Z,1.60
2017-07-17T11:00:13.333Z,1.30
2017-07-17T11:02:40.852Z,1.43
2017-07-17T11:05:08.364Z,1.57
2017-07-17T11:07:36.020Z,1.70
2017-07-17T11:10:03.630Z,1.50
2017-07-17T11:12:31.232Z,1.80
2017-07-17T11:14:59.660Z,1.63
2017-07-17T11:17:27.181Z,1.87
2017-07-17T11:19:55.540Z,1.50
2017-07-17T11:22:23.105Z,1.57
2017-07-17T11:24:50.719Z,1.50
2017-07-17T11:27:18.295Z,1.57
2017-07-17T11:29:49.506Z,1.60
2017-07-17T11:32:17.082Z,2.17
2017-07-17T11:34:44.601Z,1.47
2017-07-17T11:37:12.888Z,1.83
2017-07-17T11:39:41.252Z,1.93
2017-07-17T11:42:08.784Z,2.20
2017-07-17T11:44:37.051Z,1.53
2017-07-17T11:57:16.314Z,1.60
2017-07-17T11:59:44.612Z,1.67
2017-07-17T12:02:12.300Z,1.83
2017-07-17T12:04:39.828Z,1.60
2017-07-17T12:07:07.356Z,2.00
2017-07-17T12:09:34.968Z,1.93
2017-07-17T12:12:02.481Z,1.70
2017-07-17T12:14:30.894Z,1.80
2017-07-17T12:16:58.646Z,1.93
2017-07-17T12:19:26.400Z,2.00
2017-07-17T12:21:54.671Z,1.77
2017-07-17T12:24:22.983Z,2.10
2017-07-17T12:26:51.844Z,2.17
2017-07-17T12:29:20.133Z,1.77
2017-07-17T12:31:47.639Z,1.43
2017-07-17T12:34:15.209Z,2.33
2017-07-17T12:36:42.741Z,2.20
2017-07-17T12:39:10.356Z,2.00
2017-07-17T12:41:37.921Z,1.67
2017-07-17T12:44:06.201Z,1.80
2017-07-17T12:46:34.503Z,1.90
2017-07-17T12:49:02.019Z,1.83
2017-07-17T12:51:29.581Z,2.07
2017-07-17T12:53:57.105Z,1.83
2017-07-17T12:56:24.683Z,2.17
2017-07-17T12:58:52.229Z,1.80
2017-07-17T13:01:19.833Z,2.23
2017-07-17T13:03:47.380Z,2.10
2017-07-17T13:06:14.897Z,2.37
2017-07-17T13:08:42.439Z,2.63
2017-07-17T13:11:10.146Z,2.00
2017-07-17T13:13:41.265Z,2.10
2017-07-17T13:18:48.621Z,3.17
2017-07-17T13:21:16.140Z,1.93
2017-07-17T13:23:43.784Z,2.23
2017-07-17T13:26:12.193Z,1.80
2017-07-17T13:28:39.711Z,1.90
2017-07-17T13:31:08.004Z,2.20
2017-07-17T13:33:35.574Z,2.13
2017-07-17T13:36:03.095Z,2.37
2017-07-17T13:38:31.404Z,2.10
2017-07-17T13:40:59.093Z,2.33
2017-07-17T13:43:26.738Z,2.10
2017-07-17T13:45:54.256Z,2.00
2017-07-17T13:48:21.813Z,2.07
2017-07-17T13:50:50.087Z,1.90
2017-07-17T13:53:17.647Z,2.50
2017-07-17T13:55:45.929Z,2.07
2017-07-17T13:58:13.496Z,2.37
2017-07-17T14:00:41.063Z,2.40
2017-07-17T14:03:08.624Z,2.23
2017-07-17T14:05:36.153Z,2.00
2017-07-17T14:08:04.483Z,2.10
2017-07-17T14:13:05.996Z,2.40
2017-07-17T14:15:33.564Z,2.00
2017-07-17T14:18:01.092Z,2.07
2017-07-17T14:20:28.727Z,2.03
2017-07-17T14:22:56.260Z,2.10
2017-07-17T14:25:23.774Z,2.23
2017-07-17T14:27:52.086Z,2.23
2017-07-17T14:30:19.630Z,2.50
2017-07-17T14:32:47.207Z,2.13
2017-07-17T14:35:14.727Z,2.30
2017-07-17T14:37:43.043Z,1.93
2017-07-17T14:40:10.606Z,2.07
2017-07-17T14:42:38.115Z,2.10
2017-07-17T14:45:05.629Z,2.20
2017-07-17T14:47:33.216Z,2.97
2017-07-17T14:50:00.742Z,2.20
2017-07-17T14:52:28.281Z,2.13
2017-07-17T14:54:55.853Z,2.30
2017-07-17T14:57:23.371Z,2.57
2017-07-17T14:59:51.648Z,2.47
2017-07-17T15:02:19.961Z,2.20
2017-07-17T15:04:47.528Z,1.83
2017-07-17T15:07:15.043Z,1.93
2017-07-17T15:09:42.556Z,2.17
2017-07-17T15:12:10.105Z,1.80
2017-07-17T15:14:37.631Z,2.03
2017-07-17T15:17:05.199Z,1.83
2017-07-17T15:19:32.712Z,2.53
2017-07-17T15:22:01.036Z,1.90
2017-07-17T15:24:28.553Z,1.60
2017-07-17T15:26:56.870Z,2.10
2017-07-17T15:29:24.401Z,2.23
2017-07-17T15:31:51.961Z,1.93
2017-07-17T15:34:19.498Z,2.30
2017-07-17T15:36:47.811Z,1.90
2017-07-17T15:39:15.368Z,2.07
2017-07-17T15:41:42.892Z,2.20
2017-07-17T15:44:11.173Z,2.27
2017-07-17T15:46:38.731Z,2.33
2017-07-17T15:49:06.246Z,2.23
2017-07-17T15:51:33.759Z,2.30
2017-07-17T15:54:01.357Z,2.10
2017-07-17T15:56:28.879Z,2.60
2017-07-17T15:58:56.564Z,2.50
2017-07-17T16:01:24.129Z,2.20
2017-07-17T16:03:51.679Z,2.20
2017-07-17T16:06:19.218Z,2.30
2017-07-17T16:08:46.760Z,2.80
2017-07-17T16:11:14.277Z,2.33
2017-07-17T16:13:41.831Z,2.90
2017-07-17T16:16:09.392Z,2.03
2017-07-17T16:18:37.026Z,1.90
2017-07-17T16:21:04.580Z,2.17
2017-07-17T16:23:32.119Z,2.13
2017-07-17T16:25:59.640Z,2.30
2017-07-17T16:28:27.181Z,2.10
2017-07-17T16:30:54.701Z,2.03
2017-07-17T16:33:22.266Z,2.20
2017-07-17T16:35:49.795Z,2.30
2017-07-17T16:38:17.315Z,2.20
2017-07-17T16:40:44.877Z,2.00
2017-07-17T16:43:13.232Z,1.80
2017-07-17T16:45:40.748Z,2.03
2017-07-17T16:48:08.272Z,2.30
2017-07-17T16:50:35.835Z,2.23
2017-07-17T16:53:04.132Z,1.80
2017-07-17T16:55:31.692Z,2.00
2017-07-17T16:57:59.247Z,2.03
2017-07-17T17:00:26.773Z,1.77
2017-07-17T17:02:54.331Z,1.83
2017-07-17T17:05:21.909Z,1.90
2017-07-17T17:07:50.210Z,1.90
2017-07-17T17:10:17.772Z,2.20
2017-07-17T17:12:45.306Z,2.13
2017-07-17T17:15:13.643Z,2.37
2017-07-17T17:17:41.213Z,2.10
2017-07-17T17:20:08.764Z,1.90
2017-07-17T17:22:36.280Z,2.10
2017-07-17T17:25:03.796Z,1.70
2017-07-17T17:27:31.406Z,2.33
2017-07-17T17:29:58.931Z,2.37
2017-07-17T17:32:26.440Z,2.03
2017-07-17T17:34:53.999Z,2.33
2017-07-17T17:37:21.512Z,2.30
2017-07-17T17:39:49.028Z,2.23
2017-07-17T17:42:16.589Z,2.30
2017-07-17T17:44:44.148Z,1.90
2017-07-17T17:47:11.668Z,1.70
2017-07-17T17:49:39.221Z,2.00
2017-07-17T17:52:06.733Z,2.10
2017-07-17T17:54:35.952Z,2.37
2017-07-17T17:57:03.517Z,2.33
2017-07-17T17:59:31.035Z,2.10
2017-07-17T18:01:58.548Z,2.30
2017-07-17T18:04:26.109Z,2.70
2017-07-17T18:06:53.632Z,2.43
2017-07-17T18:09:21.149Z,2.83
2017-07-17T18:11:48.720Z,2.40
2017-07-17T18:14:16.252Z,1.87
2017-07-17T18:16:43.869Z,2.40
2017-07-17T18:19:11.435Z,1.97
2017-07-17T18:21:40.535Z,2.20
2017-07-17T18:24:08.513Z,2.00
2017-07-17T18:26:36.100Z,2.00
2017-07-17T18:29:03.632Z,2.00
2017-07-17T18:31:31.140Z,2.33
2017-07-17T18:33:58.702Z,2.07
2017-07-17T18:36:26.999Z,1.77
2017-07-17T18:38:54.527Z,2.37
2017-07-17T18:41:22.103Z,2.13
2017-07-17T18:43:50.396Z,2.03
2017-07-17T18:46:17.929Z,2.10
2017-07-17T18:48:46.272Z,2.30
2017-07-17T18:51:13.796Z,2.10
2017-07-17T18:53:41.313Z,2.67
2017-07-17T18:56:08.883Z,2.13
2017-07-17T18:58:37.168Z,2.10
2017-07-17T19:01:04.695Z,2.20
2017-07-17T19:03:32.253Z,2.23
2017-07-17T19:05:59.957Z,2.40
2017-07-17T19:08:28.280Z,2.20
2017-07-17T19:10:55.861Z,2.20
2017-07-17T19:13:23.375Z,2.43
2017-07-17T19:15:50.899Z,2.60
2017-07-17T19:18:18.456Z,2.27
2017-07-17T19:20:45.978Z,2.40
2017-07-17T19:23:13.491Z,2.70
2017-07-17T19:25:41.048Z,2.23
2017-07-17T19:28:08.572Z,2.40
2017-07-17T19:30:36.112Z,2.60
2017-07-17T19:33:04.482Z,2.50
2017-07-17T19:35:32.004Z,2.47
2017-07-17T19:37:59.521Z,2.43
2017-07-17T19:40:27.885Z,2.40
2017-07-17T19:42:55.432Z,2.73
2017-07-17T19:45:22.979Z,2.73
2017-07-17T19:47:50.523Z,3.10
2017-07-17T19:50:18.105Z,3.00
2017-07-17T19:52:45.633Z,2.10
2017-07-17T19:55:13.151Z,2.90
2017-07-17T19:57:40.724Z,2.97
2017-07-17T20:00:08.244Z,2.60
2017-07-17T20:02:35.777Z,2.50
2017-07-17T20:05:03.339Z,2.93
2017-07-17T20:07:30.863Z,2.90
2017-07-17T20:09:58.404Z,3.00
2017-07-17T20:12:25.966Z,3.03
2017-07-17T20:14:53.485Z,2.80
2017-07-17T20:17:21.004Z,2.87
2017-07-17T20:19:48.556Z,3.07
2017-07-17T20:22:16.064Z,2.73
2017-07-17T20:24:43.584Z,2.70
2017-07-17T20:27:11.183Z,3.10
2017-07-17T20:29:38.724Z,2.93
2017-07-17T20:32:06.250Z,3.30
2017-07-17T20:34:33.823Z,2.77
2017-07-17T20:37:01.404Z,3.10
2017-07-17T20:39:29.709Z,2.90
2017-07-17T20:41:57.238Z,3.33
2017-07-17T20:44:24.800Z,2.97
2017-07-17T20:46:53.080Z,3.27
2017-07-17T20:49:20.605Z,3.70
2017-07-17T20:51:48.189Z,3.30
2017-07-17T20:54:15.723Z,2.90
2017-07-17T20:56:43.252Z,3.50
2017-07-17T20:59:10.822Z,3.20
2017-07-17T21:01:38.349Z,3.20
2017-07-17T21:04:05.872Z,3.50
2017-07-17T21:06:33.477Z,3.40
2017-07-17T21:09:01.004Z,3.60
2017-07-17T21:11:28.564Z,3.67
2017-07-17T21:13:56.155Z,3.70
2017-07-17T21:16:23.704Z,3.63
2017-07-17T21:18:51.376Z,3.67
2017-07-17T21:21:18.948Z,3.80
2017-07-17T21:23:46.498Z,3.43
2017-07-17T21:26:14.056Z,3.40
2017-07-17T21:28:41.659Z,3.30
2017-07-17T21:31:09.183Z,3.70
2017-07-17T21:33:36.699Z,3.80
2017-07-17T21:36:04.325Z,4.10
2017-07-17T21:38:31.867Z,4.13
2017-07-17T21:40:59.402Z,4.40
2017-07-17T21:43:27.028Z,4.40
2017-07-17T21:45:54.631Z,3.67
2017-07-17T21:48:22.159Z,3.73
2017-07-17T21:50:49.737Z,3.90
2017-07-17T21:53:17.244Z,4.17
2017-07-17T21:55:44.824Z,3.90
2017-07-17T21:58:12.392Z,3.77
2017-07-17T22:00:40.478Z,4.50
2017-07-17T22:03:08.804Z,4.17
2017-07-17T22:05:37.139Z,4.00
2017-07-17T22:08:04.660Z,3.83
2017-07-17T22:10:32.178Z,4.23
2017-07-17T22:12:59.748Z,4.93
2017-07-17T22:15:27.278Z,4.10
2017-07-17T22:17:54.798Z,4.90
2017-07-17T22:20:22.484Z,4.43
2017-07-17T22:22:50.037Z,3.90
2017-07-17T22:25:17.551Z,4.63
2017-07-17T22:27:45.900Z,4.17
2017-07-17T22:30:13.446Z,4.70
2017-07-17T22:32:40.955Z,4.40
2017-07-17T22:35:08.548Z,4.47
2017-07-17T22:37:36.077Z,4.30
2017-07-17T22:40:03.604Z,4.57
2017-07-17T22:42:31.960Z,4.50
2017-07-17T22:44:59.469Z,4.43
2017-07-17T22:47:26.993Z,4.47
2017-07-17T22:49:55.318Z,4.90
2017-07-17T22:52:22.836Z,4.50
2017-07-17T22:54:51.121Z,4.77
2017-07-17T22:57:18.717Z,4.37
2017-07-17T22:59:46.255Z,4.73
2017-07-17T23:02:13.771Z,4.67
2017-07-17T23:04:42.112Z,4.77
2017-07-17T23:07:09.629Z,4.63
2017-07-17T23:09:37.161Z,4.43
2017-07-17T23:12:05.513Z,4.80
2017-07-17T23:14:33.037Z,5.30
2017-07-17T23:17:00.556Z,4.97
2017-07-17T23:19:28.892Z,5.40
2017-07-17T23:21:56.412Z,5.43
2017-07-17T23:24:23.928Z,4.90
2017-07-17T23:26:51.499Z,4.90
2017-07-17T23:29:19.024Z,5.20
2017-07-17T23:31:46.546Z,5.00
2017-07-17T23:34:14.126Z,5.20
2017-07-17T23:36:41.647Z,5.60
2017-07-17T23:39:09.191Z,4.80
2017-07-17T23:41:37.528Z,4.97
2017-07-17T23:44:05.062Z,4.80
2017-07-17T23:46:32.582Z,4.83
2017-07-17T23:49:00.159Z,6.00
2017-07-17T23:51:27.676Z,5.17
2017-07-17T23:53:55.203Z,5.47
2017-07-17T23:56:22.777Z,5.17
2017-07-17T23:58:50.337Z,5.40
